Farber, Missouri
Current Conditions -  °F | °C
As of 12:54 AM on Sunday 23 Nov 2014 (Local Time) from KCOU Reporting Station
Clear Clear  
Wind Chill: 11°   Ceiling: Unl
Heat Index: 11°   Visibility: 10mi
Dew Point:   Wind: 14mph
Humidity: 89%   Direction: 160°SSE
Pressure: 29.75"   Gusts: NA
Location:  39.27°N, 91.57°W
Report Text: KCOU 230654Z AUTO 16012KT 10SM CLR 11/09 A2975 RMK AO2 SLP072 T01110094 $
Loading
Personal Weather Stations






























Interactive Weather Map New forecast layout! Learn more

10-Day Weather Forecast

Advertisements
Track Severe Weather on mobile